Santa Lucia, Brazil
Current Conditions -  °F | °C
As of 7:00 AM on Sunday 26 Oct 2014 (Local Time) from SBFI Reporting Station
Clear Clear  
Wind Chill: 68°   Ceiling: Unl
Heat Index: 68°   Visibility: 6mi
Dew Point: 66°   Wind: 6mph
Humidity: 94%   Direction: 90°E
Pressure: 29.88"   Gusts: NA
Location:  25.41°S, 53.57°W
Report Text: SBFI 260900Z 09005KT CAVOK 20/19 Q1012
Loading
Personal Weather Stations






























Interactive Weather Map
Tropical Storm Tracking
New forecast layout! Learn more

10-Day Weather Forecast

Advertisements
Track Severe Weather on mobile